Terminal Aerodrome Forecast
Issued by NWS

Home | Current Version | Previous Version | Graphics & Text | Print | Product List | Glossary On
Versions: 1 2 3 4 5 6 7 8 9 10 11 12 13 14 15 16 17 18 19 20 21 22 23 24 25 26 27 28 29 30 31 32 33 34 35
000
FTUS43 KLOT 240300 AAA
TAFMDW
TAF AMD
KMDW 240303Z 2403/2424 22012KT P6SM SKC
     FM240700 22014G20KT P6SM BKN150 WS020/25045KT
     FM241400 23018G28KT P6SM BKN050 PROB30 2416/2418 2SM -SHSN
     FM242000 26015G25KT P6SM BKN035=

USA.gov is the U.S. government's official web portal to all federal, state and local government web resources and services.